Time;durP1;ratioP1;P1;durP2;ratioP2;P2;SDS_P1;SDS_P2;PMS_P1;PMS_P2;Temp;Humidity;BMP_temperature;BMP_pressure;BME280_temperature;BME280_humidity;BME280_pressure;Samples;Min_cycle;Max_cycle;Signal;HPM_P1;HPM_P2
2022/10/16 00:00:45;;;;;;;;;;;13.20;99.90;;;;;;5027603;28;19935;-77
2022/10/16 00:03:17;;;;;;;;;;;13.10;99.90;;;;;;5026827;28;19932;-77
2022/10/16 00:05:46;;;;;;;;;;;13.10;99.90;;;;;;5026756;28;19929;-77
2022/10/16 00:08:19;;;;;;;;;;;13.10;99.90;;;;;;5025754;28;20009;-77
2022/10/16 00:11:08;;;;;;;;;;;;;;;;;;;;;
2022/10/16 00:13:38;;;;;;;;;;;13.10;99.90;;;;;;5007958;28;19933;-77
2022/10/16 00:16:08;;;;;;;;;;;13.00;99.90;;;;;;5031210;28;19964;-77
2022/10/16 00:18:47;;;;;;;;;;;13.00;99.90;;;;;;5023412;28;19976;-77
2022/10/16 00:24:04;;;;;;;;;;;13.00;99.90;;;;;;5023930;28;20341;-77
2022/10/16 00:26:39;;;;;;;;;;;12.90;99.90;;;;;;5023894;28;19940;-77
2022/10/16 00:29:07;;;;;;;;;;;12.80;99.90;;;;;;5009223;28;20006;-77
2022/10/16 00:31:36;;;;;;;;;;;12.90;99.90;;;;;;5012422;28;19929;-76
2022/10/16 00:34:13;;;;;;;;;;;12.90;99.90;;;;;;5010582;28;19941;-76
2022/10/16 00:36:46;;;;;;;;;;;12.90;99.90;;;;;;5010253;28;19975;-76
2022/10/16 00:39:13;;;;;;;;;;;12.80;99.90;;;;;;5028252;28;20024;-76
2022/10/16 00:41:42;;;;;;;;;;;12.80;99.90;;;;;;5010002;28;19929;-76
2022/10/16 00:44:32;;;;;;;;;;;12.80;99.90;;;;;;5028095;28;19932;-76
2022/10/16 00:47:05;;;;;;;;;;;12.80;99.90;;;;;;5025990;28;19925;-76
2022/10/16 00:49:38;;;;;;;;;;;12.80;99.90;;;;;;5026100;28;19940;-77
2022/10/16 00:52:13;;;;;;;;;;;12.80;99.90;;;;;;5030921;28;19925;-76
2022/10/16 00:54:41;;;;;;;;;;;12.80;99.90;;;;;;5014050;28;19983;-77
2022/10/16 00:57:12;;;;;;;;;;;12.80;99.90;;;;;;5030714;28;19935;-76
2022/10/16 00:59:44;;;;;;;;;;;12.80;99.90;;;;;;5030719;28;19925;-74
2022/10/16 01:02:14;;;;;;;;;;;12.80;99.90;;;;;;5036947;28;19929;-75
2022/10/16 01:04:46;;;;;;;;;;;12.80;99.90;;;;;;5026323;28;20044;-77
2022/10/16 01:07:23;;;;;;;;;;;12.80;99.90;;;;;;5026702;28;19983;-76
2022/10/16 01:09:57;;;;;;;;;;;12.80;99.90;;;;;;4995132;28;19925;-75
2022/10/16 01:12:37;;;;;;;;;;;12.80;99.90;;;;;;5012689;28;19940;-75
2022/10/16 01:15:14;;;;;;;;;;;12.80;99.90;;;;;;5032130;28;19975;-76
2022/10/16 01:17:47;;;;;;;;;;;12.80;99.90;;;;;;5032164;28;19941;-76
2022/10/16 01:20:29;;;;;;;;;;;12.80;99.90;;;;;;5030094;28;20042;-76
2022/10/16 01:23:09;;;;;;;;;;;12.80;99.90;;;;;;5014254;28;19932;-77
2022/10/16 01:25:53;;;;;;;;;;;12.80;99.90;;;;;;5013008;28;20120;-76
2022/10/16 01:28:23;;;;;;;;;;;12.70;99.90;;;;;;5013173;28;20517;-76
2022/10/16 01:30:52;;;;;;;;;;;12.70;99.90;;;;;;5033336;28;19978;-76
2022/10/16 01:33:20;;;;;;;;;;;12.80;99.90;;;;;;5015855;28;19964;-77
2022/10/16 01:35:47;;;;;;;;;;;;;;;;;;5013718;28;19933;-77
2022/10/16 01:38:17;;;;;;;;;;;12.90;99.90;;;;;;5006188;28;19932;-77
2022/10/16 01:40:47;;;;;;;;;;;13.00;99.90;;;;;;4993842;28;20032;-77
2022/10/16 01:43:15;;;;;;;;;;;13.10;99.90;;;;;;5021515;28;19929;-77
2022/10/16 01:45:45;;;;;;;;;;;13.10;99.90;;;;;;5024659;28;19932;-77
2022/10/16 01:48:13;;;;;;;;;;;13.20;99.90;;;;;;5021889;28;19928;-77
2022/10/16 01:50:42;;;;;;;;;;;13.20;99.90;;;;;;5030252;28;19936;-77
2022/10/16 01:53:10;;;;;;;;;;;13.20;99.90;;;;;;5029383;28;19929;-77
2022/10/16 01:55:39;;;;;;;;;;;13.30;99.90;;;;;;5029560;28;19980;-77
2022/10/16 01:58:08;;;;;;;;;;;13.30;99.90;;;;;;4993750;28;19933;-77
2022/10/16 02:00:35;;;;;;;;;;;13.40;99.90;;;;;;4993914;28;19976;-77
2022/10/16 02:03:04;;;;;;;;;;;13.40;99.90;;;;;;4992923;28;20283;-76
2022/10/16 02:05:32;;;;;;;;;;;13.40;99.90;;;;;;4993528;28;20561;-77
2022/10/16 02:07:59;;;;;;;;;;;13.40;99.90;;;;;;5017427;28;19991;-77
2022/10/16 02:10:30;;;;;;;;;;;13.30;99.90;;;;;;5013368;28;19925;-76
2022/10/16 02:12:59;;;;;;;;;;;13.20;99.90;;;;;;5030329;28;20477;-77
2022/10/16 02:15:26;;;;;;;;;;;13.10;99.90;;;;;;5013023;28;19933;-76
2022/10/16 02:17:53;;;;;;;;;;;13.10;99.90;;;;;;5029530;28;19936;-76
2022/10/16 02:20:23;;;;;;;;;;;13.10;99.90;;;;;;4993005;28;19969;-76
2022/10/16 02:22:51;;;;;;;;;;;13.00;99.90;;;;;;5009797;28;20024;-76
2022/10/16 02:25:20;;;;;;;;;;;13.00;99.90;;;;;;5022241;28;20427;-75
2022/10/16 02:27:51;;;;;;;;;;;13.00;99.90;;;;;;5029369;28;20441;-76
2022/10/16 02:30:21;;;;;;;;;;;13.00;99.90;;;;;;5012787;28;19944;-76
2022/10/16 02:32:49;;;;;;;;;;;13.00;99.90;;;;;;5030456;28;19933;-76
2022/10/16 02:35:17;;;;;;;;;;;13.10;99.90;;;;;;5025570;28;19953;-76
2022/10/16 02:37:50;;;;;;;;;;;13.10;99.90;;;;;;5025184;28;19968;-76
2022/10/16 02:40:17;;;;;;;;;;;13.20;99.90;;;;;;5027323;28;19991;-76
2022/10/16 02:42:44;;;;;;;;;;;13.20;99.90;;;;;;5029144;28;19932;-76
2022/10/16 02:45:12;;;;;;;;;;;13.20;99.90;;;;;;5011594;28;19925;-76
2022/10/16 02:47:38;;;;;;;;;;;12.50;99.90;;;;;;5011341;28;19979;-76
2022/10/16 02:50:06;;;;;;;;;;;13.20;99.90;;;;;;5011542;28;19976;-76
2022/10/16 02:52:33;;;;;;;;;;;13.20;99.90;;;;;;5022054;28;19929;-76
2022/10/16 02:55:01;;;;;;;;;;;13.30;99.90;;;;;;5028638;28;19925;-76
2022/10/16 02:57:28;;;;;;;;;;;13.30;99.90;;;;;;5028011;28;20662;-76
2022/10/16 02:59:55;;;;;;;;;;;13.30;99.90;;;;;;5018543;28;20027;-76
2022/10/16 03:02:22;;;;;;;;;;;13.80;99.90;;;;;;5028167;28;19933;-76
2022/10/16 03:04:49;;;;;;;;;;;13.40;99.90;;;;;;5027834;28;19972;-76
2022/10/16 03:07:16;;;;;;;;;;;13.30;99.90;;;;;;5012219;28;20502;-76
2022/10/16 03:09:43;;;;;;;;;;;13.40;99.90;;;;;;5011318;28;19964;-77
2022/10/16 03:12:11;;;;;;;;;;;13.40;99.90;;;;;;5012119;28;19925;-77
2022/10/16 03:14:39;;;;;;;;;;;13.40;99.90;;;;;;5026343;28;20329;-77
2022/10/16 03:17:06;;;;;;;;;;;13.40;99.90;;;;;;5012386;28;20513;-77
2022/10/16 03:19:33;;;;;;;;;;;13.40;99.90;;;;;;5012301;28;19936;-78
2022/10/16 03:22:00;;;;;;;;;;;13.40;99.90;;;;;;5028028;28;19929;-77
2022/10/16 03:24:27;;;;;;;;;;;13.30;99.90;;;;;;5012141;28;19990;-77
2022/10/16 03:26:53;;;;;;;;;;;13.30;99.90;;;;;;5012605;28;20351;-77
2022/10/16 03:29:22;;;;;;;;;;;13.30;99.90;;;;;;5012962;28;19980;-77
2022/10/16 03:31:49;;;;;;;;;;;13.30;99.90;;;;;;5012651;28;19933;-77
2022/10/16 03:34:16;;;;;;;;;;;13.30;99.90;;;;;;5012273;28;20364;-77
2022/10/16 03:36:43;;;;;;;;;;;13.30;99.90;;;;;;5012219;28;20459;-76
2022/10/16 03:39:10;;;;;;;;;;;13.20;99.90;;;;;;5011380;28;20017;-76
2022/10/16 03:41:37;;;;;;;;;;;13.20;99.90;;;;;;5011069;28;19929;-77
2022/10/16 03:44:03;;;;;;;;;;;13.20;99.90;;;;;;5011752;28;19956;-77
2022/10/16 03:46:35;;;;;;;;;;;13.20;99.90;;;;;;5012094;28;19976;-77
2022/10/16 03:49:02;;;;;;;;;;;13.10;99.90;;;;;;5029371;28;19979;-77
2022/10/16 03:51:29;;;;;;;;;;;13.10;99.90;;;;;;5029271;28;20060;-77
2022/10/16 03:53:56;;;;;;;;;;;13.10;99.90;;;;;;5011539;28;19929;-77
2022/10/16 03:56:23;;;;;;;;;;;13.10;99.90;;;;;;5010783;28;19929;-77
2022/10/16 03:58:49;;;;;;;;;;;13.10;99.90;;;;;;5010687;28;19946;-77
2022/10/16 04:01:16;;;;;;;;;;;13.00;99.90;;;;;;5010747;28;19976;-77
2022/10/16 04:03:45;;;;;;;;;;;13.00;99.90;;;;;;5027296;28;19929;-75
2022/10/16 04:06:14;;;;;;;;;;;12.90;99.90;;;;;;5011263;28;20000;-76
2022/10/16 04:08:43;;;;;;;;;;;12.90;99.90;;;;;;5010219;28;19929;-75
2022/10/16 04:11:10;;;;;;;;;;;13.00;99.90;;;;;;5010916;28;19929;-75
2022/10/16 04:13:37;;;;;;;;;;;13.00;99.90;;;;;;5010661;28;19991;-76
2022/10/16 04:16:04;;;;;;;;;;;12.90;99.90;;;;;;5010520;28;20360;-76
2022/10/16 04:18:31;;;;;;;;;;;12.90;99.90;;;;;;5027563;28;19929;-77
2022/10/16 04:21:02;;;;;;;;;;;12.90;99.90;;;;;;5010775;28;19936;-76
2022/10/16 04:23:29;;;;;;;;;;;12.90;99.90;;;;;;5011386;28;19929;-77
2022/10/16 04:25:56;;;;;;;;;;;12.90;99.90;;;;;;5034251;28;19990;-77
2022/10/16 04:28:23;;;;;;;;;;;12.90;99.90;;;;;;5016939;28;19932;-76
2022/10/16 04:30:50;;;;;;;;;;;12.90;99.90;;;;;;5035400;28;19929;-75
2022/10/16 04:33:17;;;;;;;;;;;12.90;99.90;;;;;;5017313;28;20024;-75
2022/10/16 04:35:44;;;;;;;;;;;12.90;99.90;;;;;;5017267;28;19933;-76
2022/10/16 04:38:12;;;;;;;;;;;12.80;99.90;;;;;;5016749;28;20468;-77
2022/10/16 04:40:39;;;;;;;;;;;11.90;99.90;;;;;;5032842;28;19929;-76
2022/10/16 04:43:07;;;;;;;;;;;12.80;99.90;;;;;;5029630;28;19929;-76
2022/10/16 04:45:34;;;;;;;;;;;12.70;99.90;;;;;;5002593;28;19960;-76
2022/10/16 04:48:01;;;;;;;;;;;12.70;99.90;;;;;;5029746;28;19941;-76
2022/10/16 04:50:27;;;;;;;;;;;12.70;99.90;;;;;;5013540;28;19956;-76
2022/10/16 04:53:06;;;;;;;;;;;12.70;99.90;;;;;;5030204;28;19960;-76
2022/10/16 04:55:35;;;;;;;;;;;12.60;99.90;;;;;;5019154;28;19955;-76
2022/10/16 04:58:02;;;;;;;;;;;12.70;99.90;;;;;;5017025;28;19929;-76
2022/10/16 05:00:29;;;;;;;;;;;12.70;99.90;;;;;;5032981;28;20349;-76
2022/10/16 05:02:56;;;;;;;;;;;12.60;99.90;;;;;;5035193;28;19929;-76
2022/10/16 05:05:23;;;;;;;;;;;12.70;99.90;;;;;;5033457;28;20011;-76
2022/10/16 05:07:50;;;;;;;;;;;12.60;99.90;;;;;;5016294;28;19929;-76
2022/10/16 05:10:17;;;;;;;;;;;12.70;99.90;;;;;;5017594;28;19929;-76
2022/10/16 05:12:45;;;;;;;;;;;12.70;99.90;;;;;;5034435;28;19984;-76
2022/10/16 05:15:12;;;;;;;;;;;12.70;99.90;;;;;;5030275;28;20031;-75
2022/10/16 05:17:39;;;;;;;;;;;12.70;99.90;;;;;;5014002;28;19980;-76
2022/10/16 05:20:06;;;;;;;;;;;12.70;99.90;;;;;;4996990;28;20389;-76
2022/10/16 05:22:33;;;;;;;;;;;12.70;99.90;;;;;;4997202;28;19926;-76
2022/10/16 05:25:00;;;;;;;;;;;12.80;99.90;;;;;;4997283;28;19925;-75
2022/10/16 05:27:27;;;;;;;;;;;12.80;99.90;;;;;;4996583;28;19935;-76
2022/10/16 05:29:55;;;;;;;;;;;12.80;99.90;;;;;;4997369;28;20025;-76
2022/10/16 05:32:22;;;;;;;;;;;12.80;99.90;;;;;;5013503;28;19980;-76
2022/10/16 05:34:49;;;;;;;;;;;12.80;99.90;;;;;;4997284;28;19991;-76
2022/10/16 05:37:16;;;;;;;;;;;12.80;99.90;;;;;;4993715;28;19929;-76
2022/10/16 05:39:42;;;;;;;;;;;12.80;99.90;;;;;;4993804;28;20326;-76
2022/10/16 05:42:09;;;;;;;;;;;12.80;99.90;;;;;;4994312;28;20044;-76
2022/10/16 05:44:36;;;;;;;;;;;12.90;99.90;;;;;;5009645;28;19972;-75
2022/10/16 05:47:04;;;;;;;;;;;12.90;99.90;;;;;;4993318;28;19933;-75
2022/10/16 05:49:31;;;;;;;;;;;12.60;99.90;;;;;;5011358;28;20509;-75
2022/10/16 05:51:58;;;;;;;;;;;12.90;99.90;;;;;;5029419;28;19931;-76
2022/10/16 05:54:25;;;;;;;;;;;12.90;99.90;;;;;;5013418;28;19944;-76
2022/10/16 05:56:52;;;;;;;;;;;12.90;99.90;;;;;;5013684;28;19971;-76
2022/10/16 05:59:19;;;;;;;;;;;12.80;99.90;;;;;;5010419;28;19926;-75
2022/10/16 06:01:46;;;;;;;;;;;12.90;99.90;;;;;;4992539;28;19930;-76
2022/10/16 06:04:14;;;;;;;;;;;12.90;99.90;;;;;;4993622;28;19930;-76
2022/10/16 06:06:41;;;;;;;;;;;12.80;99.90;;;;;;5017030;28;19926;-75
2022/10/16 06:09:08;;;;;;;;;;;12.70;99.90;;;;;;5029294;28;19929;-76
2022/10/16 06:11:35;;;;;;;;;;;12.70;99.90;;;;;;5029149;28;19929;-76
2022/10/16 06:14:06;;;;;;;;;;;12.70;99.90;;;;;;5029330;28;19936;-77
2022/10/16 06:16:33;;;;;;;;;;;12.70;99.90;;;;;;5029662;28;19925;-77
2022/10/16 06:19:00;;;;;;;;;;;12.70;99.90;;;;;;5012616;28;19964;-77
2022/10/16 06:21:29;;;;;;;;;;;12.70;99.90;;;;;;5013181;28;19925;-77
2022/10/16 06:23:57;;;;;;;;;;;12.70;99.90;;;;;;5026290;28;19929;-76
2022/10/16 06:26:25;;;;;;;;;;;12.70;99.90;;;;;;5028504;28;20409;-76
2022/10/16 06:28:52;;;;;;;;;;;12.80;99.90;;;;;;5029500;28;19936;-77
2022/10/16 06:31:19;;;;;;;;;;;12.70;99.90;;;;;;5029627;28;19933;-77
2022/10/16 06:33:46;;;;;;;;;;;12.80;99.90;;;;;;5014317;28;19975;-77
2022/10/16 06:36:14;;;;;;;;;;;12.90;99.90;;;;;;5013964;28;20421;-77
2022/10/16 06:38:42;;;;;;;;;;;13.00;99.90;;;;;;5013496;28;20300;-76
2022/10/16 06:41:12;;;;;;;;;;;13.10;99.90;;;;;;5030784;28;19933;-77
2022/10/16 06:43:39;;;;;;;;;;;13.20;99.90;;;;;;5028558;28;19928;-76
2022/10/16 06:46:07;;;;;;;;;;;13.30;99.90;;;;;;5029377;28;19948;-77
2022/10/16 06:48:34;;;;;;;;;;;13.40;99.90;;;;;;5029946;28;19936;-77
2022/10/16 06:51:01;;;;;;;;;;;13.50;99.90;;;;;;5011873;28;19991;-76
2022/10/16 06:53:29;;;;;;;;;;;13.50;99.90;;;;;;5029088;28;19972;-77
2022/10/16 06:55:58;;;;;;;;;;;13.50;99.90;;;;;;5014863;28;19929;-78
2022/10/16 06:58:25;;;;;;;;;;;13.50;99.90;;;;;;5030335;28;19936;-78
2022/10/16 07:00:56;;;;;;;;;;;13.60;99.90;;;;;;5032496;28;19933;-79
2022/10/16 07:03:23;;;;;;;;;;;13.60;99.90;;;;;;5030096;28;19925;-76
2022/10/16 07:05:50;;;;;;;;;;;13.70;99.90;;;;;;5029892;28;20103;-77
2022/10/16 07:08:17;;;;;;;;;;;13.70;99.90;;;;;;5012179;28;20312;-76
2022/10/16 07:10:44;;;;;;;;;;;13.90;99.90;;;;;;5011867;28;19994;-76
2022/10/16 07:13:14;;;;;;;;;;;14.00;99.90;;;;;;5028259;28;20414;-76
2022/10/16 07:15:41;;;;;;;;;;;14.00;99.90;;;;;;5029053;28;19972;-76
2022/10/16 07:18:08;;;;;;;;;;;14.00;99.90;;;;;;4995246;28;20136;-76
2022/10/16 07:20:37;;;;;;;;;;;13.90;99.90;;;;;;5030271;28;19929;-78
2022/10/16 07:23:07;;;;;;;;;;;13.80;99.90;;;;;;5013013;28;19933;-77
2022/10/16 07:25:34;;;;;;;;;;;13.80;99.90;;;;;;5029045;28;19961;-77
2022/10/16 07:28:00;;;;;;;;;;;13.80;99.90;;;;;;5013402;28;19937;-76
2022/10/16 07:30:29;;;;;;;;;;;13.80;99.90;;;;;;5013355;28;19944;-74
2022/10/16 07:32:56;;;;;;;;;;;14.00;99.90;;;;;;5011314;28;20227;-74
2022/10/16 07:35:23;;;;;;;;;;;14.50;99.90;;;;;;5030056;28;19929;-76
2022/10/16 07:37:49;;;;;;;;;;;15.20;99.90;;;;;;5011403;28;20404;-75
2022/10/16 07:40:16;;;;;;;;;;;16.00;99.90;;;;;;5028057;28;20010;-76
2022/10/16 07:42:44;;;;;;;;;;;16.60;99.90;;;;;;5011326;28;19929;-77
2022/10/16 07:45:11;;;;;;;;;;;17.10;99.90;;;;;;5012258;28;19964;-76
2022/10/16 07:47:40;;;;;;;;;;;17.60;99.90;;;;;;5027631;28;20355;-78
2022/10/16 07:50:07;;;;;;;;;;;18.00;99.90;;;;;;5010852;28;19926;-78
2022/10/16 07:52:34;;;;;;;;;;;18.40;99.90;;;;;;5026602;28;20297;-78
2022/10/16 07:55:01;;;;;;;;;;;18.70;99.90;;;;;;5027762;28;20039;-80
2022/10/16 07:57:27;;;;;;;;;;;18.90;99.90;;;;;;5011944;28;19929;-78
2022/10/16 07:59:54;;;;;;;;;;;19.20;99.90;;;;;;5017241;28;20290;-77
2022/10/16 08:02:22;;;;;;;;;;;19.50;99.90;;;;;;5022259;28;20299;-78
2022/10/16 08:04:50;;;;;;;;;;;19.60;99.90;;;;;;5023737;28;19934;-77
2022/10/16 08:07:19;;;;;;;;;;;19.70;99.90;;;;;;5026980;28;19931;-77
2022/10/16 08:09:50;;;;;;;;;;;19.80;99.90;;;;;;5025213;28;19929;-77
2022/10/16 08:12:19;;;;;;;;;;;20.00;99.90;;;;;;5022274;28;20619;-76
2022/10/16 08:14:49;;;;;;;;;;;20.10;99.90;;;;;;5010963;28;20020;-77
2022/10/16 08:17:20;;;;;;;;;;;20.10;99.90;;;;;;5031605;28;19948;-80
2022/10/16 08:19:56;;;;;;;;;;;20.20;99.90;;;;;;5034532;28;19936;-77
2022/10/16 08:22:26;;;;;;;;;;;20.30;99.90;;;;;;5007764;28;19933;-78
2022/10/16 08:24:54;;;;;;;;;;;20.30;99.90;;;;;;5030803;28;19929;-77
2022/10/16 08:27:21;;;;;;;;;;;20.30;99.90;;;;;;5011075;28;20003;-78
2022/10/16 08:29:49;;;;;;;;;;;20.30;99.90;;;;;;5023334;28;19940;-77
2022/10/16 08:32:16;;;;;;;;;;;20.30;99.90;;;;;;5010839;28;20383;-78
2022/10/16 08:34:43;;;;;;;;;;;20.30;99.90;;;;;;5029382;28;20389;-78
2022/10/16 08:37:13;;;;;;;;;;;20.20;99.90;;;;;;5026326;28;19935;-78
2022/10/16 08:39:40;;;;;;;;;;;20.20;99.90;;;;;;5031735;28;19930;-77
2022/10/16 08:42:19;;;;;;;;;;;20.10;99.90;;;;;;5008996;28;19925;-76
2022/10/16 08:45:00;;;;;;;;;;;20.00;99.90;;;;;;5023194;28;20583;-76
2022/10/16 08:47:36;;;;;;;;;;;19.90;99.90;;;;;;5027712;28;20623;-78
2022/10/16 08:50:06;;;;;;;;;;;19.70;99.90;;;;;;5020555;28;19955;-77
2022/10/16 08:52:36;;;;;;;;;;;19.60;99.90;;;;;;5032112;28;19925;-77
2022/10/16 08:55:04;;;;;;;;;;;19.40;99.90;;;;;;5018547;28;19925;-80
2022/10/16 08:57:32;;;;;;;;;;;19.20;99.90;;;;;;5031173;28;19933;-78
2022/10/16 09:00:01;;;;;;;;;;;19.10;99.90;;;;;;5032179;28;19955;-78
2022/10/16 09:02:31;;;;;;;;;;;18.80;99.90;;;;;;5015165;28;19925;-79
2022/10/16 09:05:04;;;;;;;;;;;18.60;99.90;;;;;;5032802;28;19936;-80
2022/10/16 09:07:34;;;;;;;;;;;18.50;99.90;;;;;;5024622;28;19979;-80
2022/10/16 09:10:10;;;;;;;;;;;18.40;99.90;;;;;;5029911;28;20388;-78
2022/10/16 09:12:42;;;;;;;;;;;18.30;99.90;;;;;;5032493;28;20373;-78
2022/10/16 09:15:24;;;;;;;;;;;18.20;99.90;;;;;;5034032;28;19929;-79
2022/10/16 09:17:55;;;;;;;;;;;18.20;99.90;;;;;;5015625;28;19988;-80
2022/10/16 09:20:30;;;;;;;;;;;18.20;99.90;;;;;;5035020;28;19930;-80
2022/10/16 09:23:09;;;;;;;;;;;18.30;99.90;;;;;;5021666;28;19929;-80
2022/10/16 09:25:39;;;;;;;;;;;18.30;99.90;;;;;;5024435;28;20432;-79
2022/10/16 09:28:08;;;;;;;;;;;18.40;99.90;;;;;;5036761;28;19948;-80
2022/10/16 09:30:35;;;;;;;;;;;18.40;99.90;;;;;;5034997;28;19956;-80
2022/10/16 09:33:02;;;;;;;;;;;18.40;99.90;;;;;;5015275;28;20555;-79
2022/10/16 09:35:32;;;;;;;;;;;18.50;99.90;;;;;;5037860;28;19961;-80
2022/10/16 09:37:59;;;;;;;;;;;18.50;99.90;;;;;;5037146;28;19926;-80
2022/10/16 09:40:27;;;;;;;;;;;18.60;99.90;;;;;;5034596;28;19951;-79
2022/10/16 09:42:58;;;;;;;;;;;18.70;99.90;;;;;;5036591;28;20580;-79
2022/10/16 09:45:25;;;;;;;;;;;18.70;99.90;;;;;;5018782;28;19929;-79
2022/10/16 09:47:52;;;;;;;;;;;18.80;99.90;;;;;;5033896;28;19964;-80
2022/10/16 09:50:24;;;;;;;;;;;18.90;99.90;;;;;;5031224;28;19924;-80
2022/10/16 09:52:51;;;;;;;;;;;19.00;99.90;;;;;;5038778;28;19969;-80
2022/10/16 09:55:19;;;;;;;;;;;19.10;99.90;;;;;;5023482;28;19924;-78
2022/10/16 09:57:52;;;;;;;;;;;19.20;99.90;;;;;;5031148;28;19929;-80
2022/10/16 10:00:21;;;;;;;;;;;19.30;99.90;;;;;;5015430;28;19964;-79
2022/10/16 10:02:48;;;;;;;;;;;19.30;99.90;;;;;;5029724;28;19933;-80
2022/10/16 10:05:20;;;;;;;;;;;19.40;99.90;;;;;;5033060;28;19929;-80
2022/10/16 10:07:54;;;;;;;;;;;19.50;99.90;;;;;;5031944;28;19929;-78
2022/10/16 10:10:22;;;;;;;;;;;19.60;99.90;;;;;;5014857;28;20416;-78
2022/10/16 10:12:49;;;;;;;;;;;19.80;99.90;;;;;;5034156;28;19987;-78
2022/10/16 10:15:21;;;;;;;;;;;20.00;99.90;;;;;;5034437;28;19925;-79
2022/10/16 10:17:51;;;;;;;;;;;20.10;99.90;;;;;;5035805;28;19929;-79
2022/10/16 10:20:25;;;;;;;;;;;20.20;99.90;;;;;;5034872;28;20060;-80
2022/10/16 10:22:52;;;;;;;;;;;20.30;99.90;;;;;;5033194;28;20301;-79
2022/10/16 10:25:22;;;;;;;;;;;20.40;99.90;;;;;;5016780;28;19988;-79
2022/10/16 10:27:55;;;;;;;;;;;20.50;99.90;;;;;;5022378;28;19968;-79
2022/10/16 10:30:24;;;;;;;;;;;20.60;99.90;;;;;;5036727;28;20009;-78
2022/10/16 10:32:58;;;;;;;;;;;20.80;99.90;;;;;;5021792;28;19937;-79
2022/10/16 10:35:31;;;;;;;;;;;21.10;99.90;;;;;;5035628;28;20003;-78
2022/10/16 10:38:04;;;;;;;;;;;21.40;99.90;;;;;;5014501;28;20286;-78
2022/10/16 10:40:35;;;;;;;;;;;21.60;99.90;;;;;;5033841;28;19940;-77
2022/10/16 10:43:07;;;;;;;;;;;21.80;99.90;;;;;;5035790;28;20017;-79
2022/10/16 10:45:40;;;;;;;;;;;22.00;99.90;;;;;;5030217;28;19929;-78
2022/10/16 10:48:18;;;;;;;;;;;22.10;99.90;;;;;;5033785;28;19925;-80
2022/10/16 10:50:48;;;;;;;;;;;22.20;99.90;;;;;;5032591;28;19926;-80
2022/10/16 10:53:22;;;;;;;;;;;22.20;99.90;;;;;;5034768;28;20011;-80
2022/10/16 10:55:53;;;;;;;;;;;23.50;99.90;;;;;;5039028;28;20779;-80
2022/10/16 10:58:50;;;;;;;;;;;22.10;99.90;;;;;;5020353;28;19929;-80
2022/10/16 11:01:19;;;;;;;;;;;22.20;99.90;;;;;;5030927;28;20549;-81
2022/10/16 11:04:07;;;;;;;;;;;22.30;99.90;;;;;;5039774;28;20324;-80
2022/10/16 11:06:37;;;;;;;;;;;22.40;99.90;;;;;;4992270;28;20027;-78
2022/10/16 11:09:10;;;;;;;;;;;22.30;99.90;;;;;;5029551;28;19929;-76
2022/10/16 11:11:39;;;;;;;;;;;22.30;99.90;;;;;;5014865;28;20388;-78
2022/10/16 11:14:07;;;;;;;;;;;22.30;99.90;;;;;;5017761;28;20530;-78
2022/10/16 11:16:36;;;;;;;;;;;22.30;99.90;;;;;;5019686;28;19936;-78
2022/10/16 11:19:06;;;;;;;;;;;22.70;99.90;;;;;;5035573;28;20012;-79
2022/10/16 11:21:37;;;;;;;;;;;22.70;99.90;;;;;;5017563;28;19932;-79
2022/10/16 11:24:11;;;;;;;;;;;22.80;99.90;;;;;;5026861;28;19963;-79
2022/10/16 11:26:41;;;;;;;;;;;23.00;99.90;;;;;;5032467;28;19932;-78
2022/10/16 11:29:15;;;;;;;;;;;23.10;99.90;;;;;;5031488;28;19933;-77
2022/10/16 11:31:46;;;;;;;;;;;23.10;99.90;;;;;;5025885;28;19933;-78
2022/10/16 11:34:17;;;;;;;;;;;23.20;99.90;;;;;;5033468;28;19937;-78
2022/10/16 11:36:46;;;;;;;;;;;23.30;99.90;;;;;;5018854;28;20012;-78
2022/10/16 11:39:17;;;;;;;;;;;23.30;99.90;;;;;;5115060;22;19991;-76
2022/10/16 11:41:47;;;;;;;;;;;24.80;99.90;;;;;;5061020;28;19928;-76
2022/10/16 11:44:23;;;;;;;;;;;23.50;99.90;;;;;;5059876;28;19925;-76
2022/10/16 11:46:52;;;;;;;;;;;23.60;99.90;;;;;;5062286;28;19935;-77
2022/10/16 11:49:21;;;;;;;;;;;23.60;99.90;;;;;;5059258;28;19935;-76
2022/10/16 11:51:52;;;;;;;;;;;23.60;99.90;;;;;;5051219;28;19933;-76
2022/10/16 11:54:23;;;;;;;;;;;23.60;99.90;;;;;;5050027;28;19932;-76
2022/10/16 11:56:51;;;;;;;;;;;23.70;99.90;;;;;;5047567;28;19929;-78
2022/10/16 11:59:22;;;;;;;;;;;23.80;99.90;;;;;;5040793;28;19933;-76
2022/10/16 12:01:51;;;;;;;;;;;24.00;99.90;;;;;;5048429;28;19968;-76
2022/10/16 12:04:21;;;;;;;;;;;24.20;99.90;;;;;;5041844;28;19944;-74
2022/10/16 12:06:51;;;;;;;;;;;24.30;99.90;;;;;;5049586;28;19928;-77
2022/10/16 12:09:21;;;;;;;;;;;24.30;99.90;;;;;;5042778;28;19936;-77
2022/10/16 12:11:48;;;;;;;;;;;24.20;99.90;;;;;;5036228;28;20024;-73
2022/10/16 12:14:20;;;;;;;;;;;23.60;99.90;;;;;;5036650;28;19935;-76
2022/10/16 12:16:54;;;;;;;;;;;23.90;99.90;;;;;;5049665;28;19983;-76
2022/10/16 12:19:22;;;;;;;;;;;23.70;99.90;;;;;;5043882;28;19929;-76
2022/10/16 12:21:48;;;;;;;;;;;23.50;99.90;;;;;;5040178;28;20530;-76
2022/10/16 12:24:28;;;;;;;;;;;23.20;99.90;;;;;;5046465;28;20380;-76
2022/10/16 12:26:55;;;;;;;;;;;22.90;99.90;;;;;;5050071;28;19933;-77
2022/10/16 12:29:27;;;;;;;;;;;22.60;99.90;;;;;;5043359;28;19928;-78
2022/10/16 12:31:54;;;;;;;;;;;22.30;99.90;;;;;;5045781;28;19968;-78
2022/10/16 12:34:23;;;;;;;;;;;22.10;99.90;;;;;;5043001;28;19956;-77
2022/10/16 12:36:50;;;;;;;;;;;22.10;99.90;;;;;;5043748;28;20917;-79
2022/10/16 12:39:21;;;;;;;;;;;22.20;99.90;;;;;;5042214;28;19925;-79
2022/10/16 12:42:00;;;;;;;;;;;22.20;99.90;;;;;;5049572;28;19929;-79
2022/10/16 12:44:32;;;;;;;;;;;22.30;99.90;;;;;;5054274;28;20368;-78
2022/10/16 12:46:59;;;;;;;;;;;22.10;99.90;;;;;;5063643;28;20467;-78
2022/10/16 12:49:30;;;;;;;;;;;21.70;99.90;;;;;;5056876;28;20002;-78
2022/10/16 12:51:57;;;;;;;;;;;22.10;99.90;;;;;;5049984;28;19978;-76
2022/10/16 12:54:28;;;;;;;;;;;22.20;99.90;;;;;;5045911;28;20023;-74
2022/10/16 12:57:02;;;;;;;;;;;22.50;99.90;;;;;;5045573;28;19924;-74
2022/10/16 12:59:33;;;;;;;;;;;22.60;99.90;;;;;;5045666;28;19937;-74
2022/10/16 13:02:20;;;;;;;;;;;22.80;99.90;;;;;;5053150;28;19932;-74
2022/10/16 13:04:55;;;;;;;;;;;22.90;99.90;;;;;;5050613;28;19928;-73
2022/10/16 13:07:30;;;;;;;;;;;22.80;99.90;;;;;;5029990;28;20401;-74
2022/10/16 13:10:03;;;;;;;;;;;22.50;99.90;;;;;;5049758;28;19929;-74
2022/10/16 13:12:51;;;;;;;;;;;22.30;99.90;;;;;;5046525;28;19950;-74
2022/10/16 13:15:23;;;;;;;;;;;22.20;99.90;;;;;;5043297;28;19928;-74
2022/10/16 13:17:54;;;;;;;;;;;21.90;99.90;;;;;;5052323;28;19986;-75
2022/10/16 13:20:23;;;;;;;;;;;21.70;99.90;;;;;;5044018;28;20428;-75
2022/10/16 13:22:55;;;;;;;;;;;21.50;99.90;;;;;;5055337;28;19928;-75
2022/10/16 13:25:28;;;;;;;;;;;21.30;99.90;;;;;;5037157;28;19960;-75
2022/10/16 13:28:05;;;;;;;;;;;21.10;99.90;;;;;;5044679;28;20158;-75
2022/10/16 13:30:34;;;;;;;;;;;20.40;99.90;;;;;;5046246;28;19956;-75
2022/10/16 13:33:02;;;;;;;;;;;20.90;99.90;;;;;;5041955;28;19948;-75
2022/10/16 13:35:29;;;;;;;;;;;20.80;99.90;;;;;;5041542;28;19945;-75
2022/10/16 13:38:06;;;;;;;;;;;20.80;99.90;;;;;;5040041;28;20019;-75
2022/10/16 13:40:34;;;;;;;;;;;20.80;99.90;;;;;;5050976;28;20412;-75
2022/10/16 13:43:02;;;;;;;;;;;20.90;99.90;;;;;;5049125;28;20021;-76
2022/10/16 13:45:29;;;;;;;;;;;20.90;99.90;;;;;;5051991;28;20360;-75
2022/10/16 13:48:03;;;;;;;;;;;21.00;99.90;;;;;;5055751;28;19929;-74
2022/10/16 13:50:30;;;;;;;;;;;21.10;99.90;;;;;;5042449;28;19925;-74
2022/10/16 13:53:04;;;;;;;;;;;21.20;99.90;;;;;;5046231;28;20393;-74
2022/10/16 13:55:31;;;;;;;;;;;21.30;99.90;;;;;;5044731;28;19929;-75
2022/10/16 13:58:07;;;;;;;;;;;21.50;99.90;;;;;;5578197;22;20454;-74
2022/10/16 14:00:35;;;;;;;;;;;21.50;99.90;;;;;;5084821;28;20405;-74
2022/10/16 14:03:04;;;;;;;;;;;21.60;99.90;;;;;;5084413;28;19924;-74
2022/10/16 14:05:31;;;;;;;;;;;21.70;99.90;;;;;;5084872;28;19936;-74
2022/10/16 14:07:58;;;;;;;;;;;21.80;99.90;;;;;;5086879;28;19928;-74
2022/10/16 14:10:27;;;;;;;;;;;21.80;99.90;;;;;;5086478;28;19947;-74
2022/10/16 14:12:58;;;;;;;;;;;21.90;99.90;;;;;;5089639;28;19976;-75
2022/10/16 14:15:26;;;;;;;;;;;21.80;99.90;;;;;;5087513;28;19928;-75
2022/10/16 14:17:53;;;;;;;;;;;21.70;99.90;;;;;;5088027;28;20737;-75
2022/10/16 14:20:21;;;;;;;;;;;21.60;99.90;;;;;;5089939;28;19928;-75
2022/10/16 14:22:58;;;;;;;;;;;21.50;99.90;;;;;;5088757;28;19981;-75
2022/10/16 14:25:27;;;;;;;;;;;21.40;99.90;;;;;;5088549;28;19932;-75
2022/10/16 14:27:58;;;;;;;;;;;21.30;99.90;;;;;;5087788;28;20072;-75
2022/10/16 14:30:27;;;;;;;;;;;21.20;99.90;;;;;;5088591;28;20067;-75
2022/10/16 14:32:54;;;;;;;;;;;21.20;99.90;;;;;;5089953;28;19935;-75
2022/10/16 14:35:25;;;;;;;;;;;21.20;99.90;;;;;;5088977;28;19931;-75